createdAt,value
2023-09-04T00:01:57.839Z,97260.91
2023-09-04T00:04:24.462Z,97265.31
2023-09-04T00:06:51.072Z,97272.06
2023-09-04T00:09:17.646Z,97262.78
2023-09-04T00:11:44.262Z,97258.72
2023-09-04T00:14:11.186Z,97265.50
2023-09-04T00:16:38.148Z,97267.59
2023-09-04T00:19:04.957Z,97257.50
2023-09-04T00:21:31.567Z,97266.03
2023-09-04T00:23:58.157Z,97283.38
2023-09-04T00:26:24.871Z,97298.13
2023-09-04T00:28:51.550Z,97293.72
2023-09-04T00:31:18.130Z,97295.03
2023-09-04T00:33:44.844Z,97301.25
2023-09-04T00:36:11.418Z,97293.72
2023-09-04T00:38:37.994Z,97303.03
2023-09-04T00:41:04.988Z,97310.03
2023-09-04T00:43:37.682Z,97322.19
2023-09-04T00:46:05.676Z,97327.53
2023-09-04T00:48:34.631Z,97313.44
2023-09-04T00:51:02.451Z,97298.63
2023-09-04T00:53:30.763Z,97302.97
2023-09-04T00:55:59.646Z,97288.50
2023-09-04T00:58:26.378Z,97265.25
2023-09-04T01:00:53.624Z,97274.34
2023-09-04T01:03:21.108Z,97260.13
2023-09-04T01:05:47.842Z,97255.25
2023-09-04T01:08:15.652Z,97263.56
2023-09-04T01:10:53.380Z,97258.66
2023-09-04T01:13:30.104Z,97249.84
2023-09-04T01:15:58.083Z,97234.63
2023-09-04T01:18:26.008Z,97238.28
2023-09-04T01:21:06.223Z,97248.91
2023-09-04T01:23:33.795Z,97242.19
2023-09-04T01:26:16.030Z,97231.31
2023-09-04T01:28:45.464Z,97223.56
2023-09-04T01:31:19.301Z,97227.97
2023-09-04T01:33:52.395Z,97225.09
2023-09-04T01:36:20.722Z,97197.97
2023-09-04T01:38:47.951Z,97216.06
2023-09-04T01:41:14.623Z,97205.19
2023-09-04T01:43:41.278Z,97202.84
2023-09-04T01:46:07.973Z,97192.50
2023-09-04T01:48:35.642Z,97190.19
2023-09-04T01:51:02.477Z,97194.81
2023-09-04T01:53:29.116Z,97188.34
2023-09-04T01:55:55.742Z,97173.34
2023-09-04T01:58:22.553Z,97185.78
2023-09-04T02:00:49.395Z,97181.63
2023-09-04T02:03:16.138Z,97179.56
2023-09-04T02:05:43.965Z,97188.34
2023-09-04T02:08:10.691Z,97173.59
2023-09-04T02:10:37.705Z,97170.25
2023-09-04T02:13:04.537Z,97171.03
2023-09-04T02:15:31.716Z,97176.97
2023-09-04T02:18:03.437Z,97165.59
2023-09-04T02:20:31.267Z,97161.72
2023-09-04T02:22:58.716Z,97162.47
2023-09-04T02:25:26.072Z,97159.63
2023-09-04T02:27:53.010Z,97149.03
2023-09-04T02:30:19.699Z,97162.72
2023-09-04T02:32:46.781Z,97160.94
2023-09-04T02:35:13.706Z,97148.00
2023-09-04T02:37:41.898Z,97166.88
2023-09-04T02:40:09.008Z,97161.97
2023-09-04T02:42:35.619Z,97152.94
2023-09-04T02:45:02.643Z,97162.47
2023-09-04T02:47:29.246Z,97153.94
2023-09-04T02:49:56.896Z,97158.63
2023-09-04T02:52:23.742Z,97157.31
2023-09-04T02:54:50.431Z,97161.72
2023-09-04T02:57:17.058Z,97156.53
2023-09-04T02:59:43.679Z,97159.63
2023-09-04T03:02:10.364Z,97155.25
2023-09-04T03:04:36.947Z,97154.72
2023-09-04T03:07:03.624Z,97160.16
2023-09-04T03:09:32.982Z,97156.03
2023-09-04T03:12:00.392Z,97144.91
2023-09-04T03:14:27.092Z,97150.31
2023-09-04T03:16:53.954Z,97155.75
2023-09-04T03:19:20.614Z,97157.56
2023-09-04T03:21:47.349Z,97156.81
2023-09-04T03:24:14.002Z,97149.53
2023-09-04T03:26:40.643Z,97151.63
2023-09-04T03:29:07.336Z,97145.94
2023-09-04T03:31:33.988Z,97156.81
2023-09-04T03:34:03.735Z,97142.78
2023-09-04T03:36:30.366Z,97157.31
2023-09-04T03:38:57.014Z,97156.81
2023-09-04T03:41:23.987Z,97159.38
2023-09-04T03:43:51.033Z,97167.66
2023-09-04T03:46:17.669Z,97164.56
2023-09-04T03:48:44.311Z,97164.84
2023-09-04T03:51:11.275Z,97171.81
2023-09-04T03:53:37.899Z,97166.34
2023-09-04T03:56:07.940Z,97179.31
2023-09-04T03:58:34.592Z,97175.16
2023-09-04T04:01:01.341Z,97174.88
2023-09-04T04:03:28.231Z,97174.13
2023-09-04T04:05:54.921Z,97179.56
2023-09-04T04:08:21.731Z,97179.31
2023-09-04T04:10:48.559Z,97185.25
2023-09-04T04:13:15.162Z,97180.59
2023-09-04T04:15:43.013Z,97178.00
2023-09-04T04:18:11.267Z,97162.44
2023-09-04T04:20:38.064Z,97185.25
2023-09-04T04:23:05.455Z,97181.09
2023-09-04T04:25:32.144Z,97180.31
2023-09-04T04:27:58.849Z,97182.88
2023-09-04T04:30:25.505Z,97184.22
2023-09-04T04:32:52.721Z,97184.75
2023-09-04T04:35:19.663Z,97184.72
2023-09-04T04:37:46.227Z,97180.84
2023-09-04T04:40:13.093Z,97182.16
2023-09-04T04:42:41.115Z,97174.88
2023-09-04T04:45:08.548Z,97178.78
2023-09-04T04:47:35.225Z,97180.09
2023-09-04T04:50:01.887Z,97181.38
2023-09-04T04:52:28.504Z,97181.09
2023-09-04T04:54:55.125Z,97160.41
2023-09-04T04:57:21.742Z,97177.50
2023-09-04T04:59:48.407Z,97181.13
2023-09-04T05:02:15.488Z,97184.22
2023-09-04T05:04:46.981Z,97177.78
2023-09-04T05:07:14.698Z,97182.16
2023-09-04T05:09:41.374Z,97188.09
2023-09-04T05:12:08.555Z,97178.28
2023-09-04T05:14:35.250Z,97180.63
2023-09-04T05:17:01.805Z,97177.78
2023-09-04T05:19:31.698Z,97176.16
2023-09-04T05:21:58.296Z,97171.78
2023-09-04T05:24:24.892Z,97178.28
2023-09-04T05:26:51.707Z,97174.91
2023-09-04T05:29:18.445Z,97169.22
2023-09-04T05:31:45.097Z,97171.28
2023-09-04T05:34:11.836Z,97168.44
2023-09-04T05:36:38.529Z,97169.72
2023-09-04T05:39:05.997Z,97168.44
2023-09-04T05:41:32.887Z,97174.63
2023-09-04T05:43:59.579Z,97170.75
2023-09-04T05:46:26.212Z,97174.91
2023-09-04T05:48:52.890Z,97164.81
2023-09-04T05:51:19.561Z,97151.63
2023-09-04T05:53:46.168Z,97158.34
2023-09-04T05:56:12.877Z,97161.72
2023-09-04T05:58:47.928Z,97153.72
2023-09-04T06:01:14.830Z,97151.59
2023-09-04T06:03:41.994Z,97160.13
2023-09-04T06:06:08.860Z,97147.19
2023-09-04T06:08:35.621Z,97157.28
2023-09-04T06:11:03.517Z,97151.34
2023-09-04T06:13:30.949Z,97153.19
2023-09-04T06:15:57.515Z,97147.47
2023-09-04T06:18:25.655Z,97141.53
2023-09-04T06:20:52.592Z,97142.28
2023-09-04T06:23:19.229Z,97138.69
2023-09-04T06:25:47.437Z,97142.81
2023-09-04T06:28:15.008Z,97145.91
2023-09-04T06:30:41.720Z,97143.28
2023-09-04T06:33:09.359Z,97145.06
2023-09-04T06:35:36.260Z,97157.22
2023-09-04T06:38:02.956Z,97161.25
2023-09-04T06:40:29.817Z,97160.88
2023-09-04T06:42:56.534Z,97171.00
2023-09-04T06:45:23.190Z,97161.53
2023-09-04T06:47:53.617Z,97165.69
2023-09-04T06:50:20.251Z,97157.97
2023-09-04T06:52:46.949Z,97156.16
2023-09-04T06:55:13.572Z,97161.31
2023-09-04T06:57:40.217Z,97158.72
2023-09-04T07:00:08.978Z,97158.00
2023-09-04T07:02:36.877Z,97166.00
2023-09-04T07:05:04.440Z,97156.72
2023-09-04T07:07:31.870Z,97165.00
2023-09-04T07:09:58.355Z,97163.44
2023-09-04T07:12:25.466Z,97165.28
2023-09-04T07:14:52.055Z,97168.06
2023-09-04T07:17:18.750Z,97146.63
2023-09-04T07:19:45.422Z,97159.09
2023-09-04T07:22:12.262Z,97158.03
2023-09-04T07:24:38.950Z,97166.00
2023-09-04T07:27:05.679Z,97160.31
2023-09-04T07:29:32.407Z,97164.16
2023-09-04T07:31:59.509Z,97160.22
2023-09-04T07:34:26.184Z,97155.25
2023-09-04T07:36:53.457Z,97145.50
2023-09-04T07:39:20.047Z,97148.47
2023-09-04T07:41:46.695Z,97145.06
2023-09-04T07:44:13.303Z,97142.53
2023-09-04T07:46:41.589Z,97130.88
2023-09-04T07:49:08.356Z,97131.84
2023-09-04T07:51:36.384Z,97142.78
2023-09-04T07:54:04.515Z,97128.13
2023-09-04T07:56:41.032Z,97126.41
2023-09-04T07:59:08.599Z,97144.50
2023-09-04T08:01:35.256Z,97149.03
2023-09-04T08:04:05.140Z,97145.09
2023-09-04T08:06:31.790Z,97139.97
2023-09-04T08:08:58.411Z,97138.34
2023-09-04T08:11:25.277Z,97133.22
2023-09-04T08:13:52.174Z,97144.81
2023-09-04T08:16:18.959Z,97146.69
2023-09-04T08:18:45.754Z,97146.59
2023-09-04T08:21:12.364Z,97145.25
2023-09-04T08:23:39.108Z,97152.81
2023-09-04T08:26:06.098Z,97160.81
2023-09-04T08:28:32.950Z,97153.56
2023-09-04T08:30:59.787Z,97121.69
2023-09-04T08:33:27.108Z,97141.09
2023-09-04T08:35:53.604Z,97131.53
2023-09-04T08:38:20.268Z,97132.59
2023-09-04T08:40:47.156Z,97126.44
2023-09-04T08:43:17.194Z,97133.19
2023-09-04T08:45:44.850Z,97131.59
2023-09-04T08:48:13.877Z,97139.38
2023-09-04T08:50:42.913Z,97137.22
2023-09-04T08:53:09.770Z,97125.84
2023-09-04T08:55:36.784Z,97128.66
2023-09-04T08:58:05.049Z,97139.25
2023-09-04T09:00:32.712Z,97127.84
2023-09-04T09:03:02.990Z,97132.00
2023-09-04T09:05:34.136Z,97129.69
2023-09-04T09:08:01.814Z,97129.69
2023-09-04T09:10:29.636Z,97127.84
2023-09-04T09:12:56.304Z,97120.88
2023-09-04T09:15:22.936Z,97133.53
2023-09-04T09:17:54.896Z,97130.94
2023-09-04T09:20:40.131Z,97123.22
2023-09-04T09:23:07.302Z,97115.66
2023-09-04T09:25:35.382Z,97120.59
2023-09-04T09:28:06.781Z,97109.69
2023-09-04T09:30:39.052Z,97113.56
2023-09-04T09:33:18.161Z,97112.25
2023-09-04T09:35:45.477Z,97095.16
2023-09-04T09:38:12.288Z,97118.66
2023-09-04T09:40:39.439Z,97128.19
2023-09-04T09:43:06.480Z,97112.41
2023-09-04T09:45:35.082Z,97119.78
2023-09-04T09:48:09.364Z,97125.41
2023-09-04T09:50:39.277Z,97115.72
2023-09-04T09:53:06.257Z,97116.19
2023-09-04T09:55:36.193Z,97117.75
2023-09-04T09:58:03.314Z,97111.47
2023-09-04T10:00:30.467Z,97100.22
2023-09-04T10:02:57.217Z,97119.38
2023-09-04T10:05:25.304Z,97118.34
2023-09-04T10:08:00.001Z,97109.75
2023-09-04T10:10:26.775Z,97119.81
2023-09-04T10:12:57.667Z,97115.97
2023-09-04T10:15:26.465Z,97108.16
2023-09-04T10:18:11.542Z,97115.59
2023-09-04T10:20:42.306Z,97108.06
2023-09-04T10:23:12.235Z,97108.84
2023-09-04T10:26:09.892Z,97114.84
2023-09-04T10:28:52.137Z,97111.16
2023-09-04T10:31:20.760Z,97113.19
2023-09-04T10:33:47.890Z,97115.03
2023-09-04T10:36:14.801Z,97105.94
2023-09-04T10:38:43.363Z,97107.66
2023-09-04T10:41:12.712Z,97100.91
2023-09-04T10:43:40.865Z,97112.81
2023-09-04T10:46:13.248Z,97104.56
2023-09-04T10:48:47.834Z,97099.72
2023-09-04T10:51:33.050Z,97092.75
2023-09-04T10:54:23.484Z,97094.59
2023-09-04T10:56:58.629Z,97101.56
2023-09-04T10:59:26.406Z,97099.78
2023-09-04T11:01:53.686Z,97098.16
2023-09-04T11:04:30.684Z,97102.06
2023-09-04T11:07:22.269Z,97102.66
2023-09-04T11:10:05.254Z,97102.56
2023-09-04T11:12:37.144Z,97094.56
2023-09-04T11:15:12.883Z,97101.00
2023-09-04T11:17:41.809Z,97106.41
2023-09-04T11:20:10.742Z,97106.72
2023-09-04T11:22:37.468Z,97115.28
2023-09-04T11:25:04.549Z,97112.59
2023-09-04T11:27:31.229Z,97111.84
2023-09-04T11:30:02.916Z,97099.06
2023-09-04T11:32:30.232Z,97104.91
2023-09-04T11:34:58.973Z,97110.63
2023-09-04T11:37:33.096Z,97101.94
2023-09-04T11:40:03.334Z,97102.66
2023-09-04T11:42:32.665Z,97101.81
2023-09-04T11:44:59.353Z,97105.94
2023-09-04T11:47:26.420Z,97110.38
2023-09-04T11:49:53.108Z,97106.81
2023-09-04T11:52:27.284Z,97113.09
2023-09-04T11:54:55.063Z,97118.31
2023-09-04T11:57:23.176Z,97119.91
2023-09-04T12:02:16.652Z,97130.06
2023-09-04T12:04:44.277Z,97110.16
2023-09-04T12:07:16.358Z,97123.44
2023-09-04T12:09:43.152Z,97114.31
2023-09-04T12:12:09.986Z,97116.31
2023-09-04T12:14:45.084Z,97097.13
2023-09-04T12:17:12.801Z,97122.69
2023-09-04T12:19:39.643Z,97116.50
2023-09-04T12:22:16.467Z,97124.81
2023-09-04T12:25:11.310Z,97126.34
2023-09-04T12:27:40.514Z,97134.16
2023-09-04T12:30:10.025Z,97117.84
2023-09-04T12:32:38.911Z,97129.25
2023-09-04T12:35:07.450Z,97125.06
2023-09-04T12:37:35.585Z,97125.84
2023-09-04T12:40:02.164Z,97128.94
2023-09-04T12:42:28.874Z,97118.09
2023-09-04T12:44:56.051Z,97112.53
2023-09-04T12:47:23.115Z,97125.41
2023-09-04T12:49:50.392Z,97125.41
2023-09-04T12:52:17.538Z,97114.88
2023-09-04T12:54:44.289Z,97123.34
2023-09-04T12:57:10.890Z,97123.09
2023-09-04T12:59:37.663Z,97122.09
2023-09-04T13:02:04.618Z,97125.22
2023-09-04T13:04:31.267Z,97127.56
2023-09-04T13:06:59.583Z,97122.84
2023-09-04T13:09:28.109Z,97118.25
2023-09-04T13:11:57.528Z,97126.31
2023-09-04T13:14:24.216Z,97126.56
2023-09-04T13:16:51.105Z,97125.03
2023-09-04T13:19:17.971Z,97110.59
2023-09-04T13:21:44.928Z,97108.31
2023-09-04T13:24:11.641Z,97118.38
2023-09-04T13:26:38.319Z,97121.22
2023-09-04T13:29:05.522Z,97122.50
2023-09-04T13:31:32.119Z,97120.69
2023-09-04T13:33:58.731Z,97127.72
2023-09-04T13:36:25.395Z,97117.84
2023-09-04T13:38:52.009Z,97130.84
2023-09-04T13:41:18.632Z,97125.91
2023-09-04T13:43:45.227Z,97125.41
2023-09-04T13:46:11.854Z,97122.78
2023-09-04T13:48:38.462Z,97122.03
2023-09-04T13:51:06.552Z,97123.06
2023-09-04T13:53:33.638Z,97125.69
2023-09-04T13:56:00.301Z,97129.06
2023-09-04T13:58:27.198Z,97121.53
2023-09-04T14:00:53.833Z,97118.19
2023-09-04T14:03:20.596Z,97121.59
2023-09-04T14:05:50.737Z,97121.59
2023-09-04T14:08:17.792Z,97117.69
2023-09-04T14:10:44.707Z,97108.09
2023-09-04T14:13:11.354Z,97096.47
2023-09-04T14:15:40.063Z,97099.06
2023-09-04T14:18:07.240Z,97097.31
2023-09-04T14:20:34.630Z,97081.25
2023-09-04T14:23:01.213Z,97103.50
2023-09-04T14:25:29.015Z,97094.19
2023-09-04T14:27:55.645Z,97096.28
2023-09-04T14:30:22.327Z,97088.50
2023-09-04T14:32:49.044Z,97100.66
2023-09-04T14:35:15.752Z,97097.81
2023-09-04T14:37:42.965Z,97100.41
2023-09-04T14:40:09.966Z,97104.28
2023-09-04T14:42:37.196Z,97109.19
2023-09-04T14:45:04.190Z,97111.50
2023-09-04T14:47:31.284Z,97108.44
2023-09-04T14:49:58.070Z,97106.88
2023-09-04T14:52:25.530Z,97103.22
2023-09-04T14:54:52.309Z,97101.94
2023-09-04T14:57:18.875Z,97092.38
2023-09-04T14:59:45.559Z,97098.81
2023-09-04T15:02:12.271Z,97082.53
2023-09-04T15:04:41.046Z,97078.66
2023-09-04T15:07:07.910Z,97086.91
2023-09-04T15:09:34.640Z,97069.31
2023-09-04T15:12:01.729Z,97075.53
2023-09-04T15:14:28.307Z,97080.44
2023-09-04T15:16:54.901Z,97078.09
2023-09-04T15:19:21.610Z,97075.25
2023-09-04T15:21:48.192Z,97083.00
2023-09-04T15:24:14.886Z,97093.59
2023-09-04T15:26:41.599Z,97088.16
2023-09-04T15:29:08.178Z,97095.38
2023-09-04T15:31:36.075Z,97083.25
2023-09-04T15:34:03.074Z,97097.22
2023-09-04T15:36:29.706Z,97090.25
2023-09-04T15:38:57.864Z,97088.41
2023-09-04T15:41:25.341Z,97093.59
2023-09-04T15:43:51.999Z,97078.84
2023-09-04T15:46:18.752Z,97084.28
2023-09-04T15:48:45.391Z,97083.53
2023-09-04T15:51:11.993Z,97074.22
2023-09-04T15:53:39.606Z,97084.03
2023-09-04T15:56:06.844Z,97085.59
2023-09-04T15:58:33.546Z,97068.53
2023-09-04T16:01:01.546Z,97073.44
2023-09-04T16:03:28.457Z,97079.63
2023-09-04T16:05:55.291Z,97084.56
2023-09-04T16:08:22.239Z,97083.56
2023-09-04T16:10:49.590Z,97075.53
2023-09-04T16:13:17.145Z,97086.13
2023-09-04T16:15:44.121Z,97080.72
2023-09-04T16:18:10.911Z,97083.53
2023-09-04T16:20:42.116Z,97075.53
2023-09-04T16:23:09.030Z,97088.41
2023-09-04T16:25:35.718Z,97087.66
2023-09-04T16:28:02.421Z,97089.22
2023-09-04T16:30:29.125Z,97096.69
2023-09-04T16:32:55.872Z,97095.66
2023-09-04T16:35:22.748Z,97095.13
2023-09-04T16:37:49.786Z,97101.06
2023-09-04T16:40:16.429Z,97103.38
2023-09-04T16:42:43.792Z,97093.28
2023-09-04T16:45:10.552Z,97097.69
2023-09-04T16:47:37.300Z,97097.69
2023-09-04T16:50:04.282Z,97107.00
2023-09-04T16:52:30.904Z,97120.97
2023-09-04T16:54:57.615Z,97109.09
2023-09-04T16:57:24.392Z,97109.09
2023-09-04T16:59:51.095Z,97108.31
2023-09-04T17:02:17.764Z,97106.25
2023-09-04T17:04:44.476Z,97107.28
2023-09-04T17:07:11.126Z,97118.13
2023-09-04T17:09:37.712Z,97118.16
2023-09-04T17:12:04.581Z,97111.94
2023-09-04T17:14:31.155Z,97120.22
2023-09-04T17:16:57.837Z,97121.00
2023-09-04T17:19:24.457Z,97124.34
2023-09-04T17:21:51.059Z,97127.16
2023-09-04T17:24:17.730Z,97119.34
2023-09-04T17:26:44.280Z,97129.88
2023-09-04T17:29:10.925Z,97126.31
2023-09-04T17:31:37.758Z,97128.81
2023-09-04T17:34:06.138Z,97132.22
2023-09-04T17:36:32.812Z,97132.78
2023-09-04T17:38:59.539Z,97145.44
2023-09-04T17:41:26.098Z,97137.22
2023-09-04T17:43:52.930Z,97137.47
2023-09-04T17:46:19.607Z,97144.19
2023-09-04T17:48:46.285Z,97140.59
2023-09-04T17:51:12.915Z,97134.84
2023-09-04T17:53:40.193Z,97143.66
2023-09-04T17:56:06.838Z,97149.84
2023-09-04T17:58:33.451Z,97148.84
2023-09-04T18:01:02.365Z,97149.06
2023-09-04T18:03:29.265Z,97152.19
2023-09-04T18:05:55.926Z,97161.72
2023-09-04T18:08:23.970Z,97160.66
2023-09-04T18:10:50.890Z,97168.97
2023-09-04T18:13:17.478Z,97163.28
2023-09-04T18:15:44.495Z,97155.69
2023-09-04T18:18:11.225Z,97146.13
2023-09-04T18:20:38.067Z,97146.59
2023-09-04T18:23:04.779Z,97146.34
2023-09-04T18:25:31.519Z,97152.31
2023-09-04T18:28:00.991Z,97154.56
2023-09-04T18:30:28.772Z,97147.84
2023-09-04T18:32:55.415Z,97152.81
2023-09-04T18:35:26.636Z,97148.16
2023-09-04T18:37:53.955Z,97156.94
2023-09-04T18:40:21.558Z,97127.41
2023-09-04T18:42:48.480Z,97147.84
2023-09-04T18:45:15.702Z,97140.09
2023-09-04T18:47:42.614Z,97150.47
2023-09-04T18:50:10.007Z,97168.53
2023-09-04T18:52:36.554Z,97164.59
2023-09-04T18:55:03.262Z,97164.59
2023-09-04T18:57:30.344Z,97156.78
2023-09-04T18:59:59.186Z,97152.91
2023-09-04T19:02:25.974Z,97154.22
2023-09-04T19:04:52.633Z,97143.38
2023-09-04T19:07:21.412Z,97148.22
2023-09-04T19:09:52.475Z,97149.81
2023-09-04T19:12:19.210Z,97142.00
2023-09-04T19:14:47.252Z,97136.06
2023-09-04T19:17:16.057Z,97144.31
2023-09-04T19:19:42.737Z,97148.91
2023-09-04T19:22:09.421Z,97135.03
2023-09-04T19:24:36.015Z,97136.88
2023-09-04T19:27:03.560Z,97144.56
2023-09-04T19:29:30.297Z,97126.53
2023-09-04T19:31:56.973Z,97116.94
2023-09-04T19:34:23.775Z,97130.66
2023-09-04T19:36:50.365Z,97108.69
2023-09-04T19:39:16.981Z,97139.25
2023-09-04T19:41:43.617Z,97146.22
2023-09-04T19:44:10.241Z,97143.84
2023-09-04T19:46:36.888Z,97132.72
2023-09-04T19:49:03.592Z,97141.47
2023-09-04T19:51:30.224Z,97140.97
2023-09-04T19:53:56.941Z,97140.72
2023-09-04T19:56:23.625Z,97135.84
2023-09-04T19:58:50.280Z,97130.91
2023-09-04T20:01:21.397Z,97138.69
2023-09-04T20:03:48.189Z,97132.28
2023-09-04T20:06:17.679Z,97126.06
2023-09-04T20:08:45.013Z,97138.44
2023-09-04T20:11:11.652Z,97137.19
2023-09-04T20:13:38.463Z,97144.47
2023-09-04T20:16:05.307Z,97129.97
2023-09-04T20:18:32.069Z,97141.81
2023-09-04T20:20:58.658Z,97137.69
2023-09-04T20:23:25.579Z,97136.13
2023-09-04T20:25:52.480Z,97140.53
2023-09-04T20:28:19.077Z,97134.63
2023-09-04T20:30:51.838Z,97119.44
2023-09-04T20:33:18.649Z,97126.16
2023-09-04T20:35:46.673Z,97125.66
2023-09-04T20:38:13.319Z,97120.44
2023-09-04T20:40:43.130Z,97115.03
2023-09-04T20:43:09.712Z,97117.84
2023-09-04T20:45:36.331Z,97130.53
2023-09-04T20:48:03.681Z,97134.63
2023-09-04T20:50:30.265Z,97138.84
2023-09-04T20:52:56.963Z,97139.78
2023-09-04T20:55:23.586Z,97133.63
2023-09-04T20:57:50.448Z,97138.78
2023-09-04T21:00:17.491Z,97146.47
2023-09-04T21:02:44.197Z,97143.03
2023-09-04T21:05:10.827Z,97158.06
2023-09-04T21:07:37.358Z,97139.69
2023-09-04T21:10:04.231Z,97143.41
2023-09-04T21:12:49.621Z,97139.38
2023-09-04T21:15:35.062Z,97133.69
2023-09-04T21:18:20.369Z,97132.38
2023-09-04T21:21:06.994Z,97137.81
2023-09-04T21:23:52.690Z,97132.56
2023-09-04T21:26:37.959Z,97144.50
2023-09-04T21:29:23.250Z,97148.91
2023-09-04T21:32:08.808Z,97142.94
2023-09-04T21:34:54.307Z,97123.34
2023-09-04T21:37:39.628Z,97123.88
2023-09-04T21:40:25.698Z,97116.41
2023-09-04T21:43:11.139Z,97103.47
2023-09-04T21:45:56.124Z,97117.94
2023-09-04T21:48:41.242Z,97126.50
2023-09-04T21:51:26.503Z,97130.13
2023-09-04T21:54:12.021Z,97124.75
2023-09-04T21:56:56.947Z,97119.03
2023-09-04T21:59:42.359Z,97117.28
2023-09-04T22:02:27.731Z,97102.00
2023-09-04T22:05:12.661Z,97118.78
2023-09-04T22:07:58.286Z,97106.41
2023-09-04T22:10:43.787Z,97101.25
2023-09-04T22:13:29.389Z,97102.81
2023-09-04T22:16:14.530Z,97105.34
2023-09-04T22:19:00.127Z,97102.78
2023-09-04T22:21:45.730Z,97109.97
2023-09-04T22:24:31.204Z,97105.31
2023-09-04T22:27:19.310Z,97124.28
2023-09-04T22:30:04.919Z,97119.88
2023-09-04T22:32:49.943Z,97122.75
2023-09-04T22:35:35.115Z,97124.56
2023-09-04T22:38:27.843Z,97113.94
2023-09-04T22:41:13.400Z,97124.06
2023-09-04T22:43:58.882Z,97123.06
2023-09-04T22:46:44.137Z,97111.16
2023-09-04T22:49:29.597Z,97113.22
2023-09-04T22:52:15.147Z,97100.06
2023-09-04T22:55:00.367Z,97115.56
2023-09-04T22:57:45.420Z,97105.22
2023-09-04T23:00:31.443Z,97101.09
2023-09-04T23:03:16.677Z,97100.56
2023-09-04T23:06:02.166Z,97108.06
2023-09-04T23:08:46.985Z,97106.78
2023-09-04T23:11:31.976Z,97104.47
2023-09-04T23:14:16.938Z,97100.06
2023-09-04T23:17:03.918Z,97079.63
2023-09-04T23:19:49.488Z,97080.16
2023-09-04T23:22:16.091Z,97080.16
2023-09-04T23:24:43.837Z,97086.88
2023-09-04T23:27:15.864Z,97106.78
2023-09-04T23:29:43.600Z,97104.19
2023-09-04T23:32:10.869Z,97103.38
2023-09-04T23:34:38.498Z,97111.66
2023-09-04T23:37:16.079Z,97103.38
2023-09-04T23:40:03.186Z,97117.81
2023-09-04T23:42:54.200Z,97113.16
2023-09-04T23:45:21.274Z,97108.47
2023-09-04T23:47:51.972Z,97101.25
2023-09-04T23:50:24.305Z,97093.28
2023-09-04T23:52:55.917Z,97087.34
2023-09-04T23:55:24.770Z,97083.97
2023-09-04T23:57:51.852Z,97081.41
